Time;durP1;ratioP1;P1;durP2;ratioP2;P2;SDS_P1;SDS_P2;PMS_P1;PMS_P2;Temp;Humidity;BMP_temperature;BMP_pressure;BME280_temperature;BME280_humidity;BME280_pressure;Samples;Min_cycle;Max_cycle;Signal;HPM_P1;HPM_P2
2022/07/23 00:01:28;;;;;;;3.27;3.05;;;;;;;20.12;66.32;99799.48;1674331;85;21170;-74
2022/07/23 00:03:55;;;;;;;3.40;3.20;;;;;;;20.08;66.37;99796.31;1685256;84;20995;-77
2022/07/23 00:06:23;;;;;;;3.05;2.85;;;;;;;20.06;66.63;99799.34;1676374;84;21039;-77
2022/07/23 00:08:50;;;;;;;3.47;3.17;;;;;;;20.02;66.57;99803.81;1650302;85;21062;-73
2022/07/23 00:11:18;;;;;;;2.67;2.55;;;;;;;19.98;66.58;99802.27;1643280;87;21070;-73
2022/07/23 00:13:46;;;;;;;3.08;2.85;;;;;;;19.91;66.76;99803.24;1629559;85;21141;-73
2022/07/23 00:16:13;;;;;;;4.17;3.77;;;;;;;19.81;67.00;99804.02;1670174;85;21332;-73
2022/07/23 00:18:41;;;;;;;4.05;2.70;;;;;;;19.75;67.49;99803.36;1702962;84;21091;-73
2022/07/23 00:21:08;;;;;;;2.67;2.47;;;;;;;19.69;67.99;99810.04;1674028;85;21027;-73
2022/07/23 00:23:35;;;;;;;3.65;3.27;;;;;;;19.63;68.57;99811.81;1679607;84;21111;-75
2022/07/23 00:26:01;;;;;;;3.12;2.92;;;;;;;19.55;68.76;99804.62;1684641;84;21282;-72
2022/07/23 00:28:30;;;;;;;3.75;3.42;;;;;;;19.51;69.18;99805.53;1682264;84;21051;-74
2022/07/23 00:30:57;;;;;;;3.65;3.35;;;;;;;19.45;69.69;99814.94;1703953;84;21057;-73
2022/07/23 00:33:23;;;;;;;6.80;3.42;;;;;;;19.39;69.89;99810.66;1670795;85;20996;-77
2022/07/23 00:35:53;;;;;;;4.53;3.20;;;;;;;19.35;70.19;99811.83;1672789;85;21046;-74
2022/07/23 00:38:19;;;;;;;3.33;3.12;;;;;;;19.33;70.41;99811.90;1625440;87;22012;-72
2022/07/23 00:40:47;;;;;;;4.42;3.83;;;;;;;19.32;70.70;99815.73;1643644;87;21550;-72
2022/07/23 00:43:13;;;;;;;3.45;3.15;;;;;;;19.34;70.66;99814.30;1625334;85;20988;-78
2022/07/23 00:45:41;;;;;;;2.77;2.58;;;;;;;19.32;70.98;99813.01;1624946;87;20948;-72
2022/07/23 00:48:09;;;;;;;4.95;3.12;;;;;;;19.32;70.87;99811.09;1643910;87;21015;-71
2022/07/23 00:50:37;;;;;;;3.25;3.05;;;;;;;19.32;71.04;99809.73;1643991;87;21205;-72
2022/07/23 00:53:04;;;;;;;3.42;2.90;;;;;;;19.30;71.12;99809.20;1616003;88;21086;-71
2022/07/23 00:55:32;;;;;;;4.40;4.00;;;;;;;19.30;71.09;99810.57;1645668;85;20988;-72
2022/07/23 00:57:59;;;;;;;3.67;3.37;;;;;;;19.27;71.03;99814.47;1643139;85;21023;-70
2022/07/23 01:00:27;;;;;;;3.50;3.25;;;;;;;19.19;71.43;99828.24;1643746;87;21507;-71
2022/07/23 01:02:53;;;;;;;3.87;2.90;;;;;;;19.14;71.57;99819.61;1616065;88;21091;-72
2022/07/23 01:05:22;;;;;;;3.65;3.20;;;;;;;19.16;71.56;99820.68;1668649;85;21034;-71
2022/07/23 01:07:54;;;;;;;4.40;3.10;;;;;;;19.16;71.67;99826.94;1640308;87;20959;-70
2022/07/23 01:10:32;;;;;;;4.10;3.70;;;;;;;19.20;71.45;99830.42;1650851;85;20996;-70
2022/07/23 01:13:09;;;;;;;3.42;3.17;;;;;;;19.19;71.40;99829.61;1643847;86;21563;-73
2022/07/23 01:15:37;;;;;;;3.10;2.87;;;;;;;19.17;71.44;99823.66;1633421;86;21604;-74
2022/07/23 01:18:05;;;;;;;3.70;3.05;;;;;;;19.14;71.77;99821.52;1668507;85;20932;-77
2022/07/23 01:20:34;;;;;;;4.37;3.10;;;;;;;19.07;71.99;99831.49;1672438;85;21056;-71
2022/07/23 01:23:01;;;;;;;3.27;3.08;;;;;;;19.03;72.14;99830.48;1672522;85;21060;-76
2022/07/23 01:25:28;;;;;;;3.72;3.35;;;;;;;18.97;72.72;99834.41;1647674;85;21091;-74
2022/07/23 01:27:59;;;;;;;7.40;3.00;;;;;;;18.95;72.96;99838.53;1669861;85;21181;-74
2022/07/23 01:30:27;;;;;;;2.80;2.60;;;;;;;18.92;73.29;99835.86;1655569;85;21086;-74
2022/07/23 01:32:55;;;;;;;2.95;2.75;;;;;;;18.91;73.57;99841.61;1647503;86;20989;-73
2022/07/23 01:35:21;;;;;;;3.22;2.95;;;;;;;18.92;73.40;99839.14;1648582;85;21121;-73
2022/07/23 01:37:49;;;;;;;3.47;3.22;;;;;;;18.93;73.59;99843.48;1667040;85;21054;-73
2022/07/23 01:40:17;;;;;;;3.60;3.08;;;;;;;18.93;73.48;99836.13;1675720;85;21054;-78
2022/07/23 01:42:44;;;;;;;3.33;3.02;;;;;;;18.92;73.55;99842.68;1658718;85;20939;-76
2022/07/23 01:45:12;;;;;;;4.05;3.10;;;;;;;18.87;73.96;99835.15;1646918;87;21007;-76
2022/07/23 01:47:42;;;;;;;4.37;3.22;;;;;;;18.79;74.46;99833.94;1648004;85;21026;-74
2022/07/23 01:50:10;;;;;;;3.00;2.80;;;;;;;18.83;74.21;99838.22;1646766;86;21078;-74
2022/07/23 01:52:41;;;;;;;3.30;3.10;;;;;;;18.84;74.36;99826.22;1646565;87;21252;-75
2022/07/23 01:55:08;;;;;;;3.75;2.92;;;;;;;18.85;74.31;99838.16;1647007;87;21588;-74
2022/07/23 01:57:37;;;;;;;3.33;3.02;;;;;;;18.80;74.59;99839.61;1649932;85;21013;-74
2022/07/23 02:00:07;;;;;;;6.22;3.47;;;;;;;18.76;74.47;99841.87;1658461;85;20998;-75
2022/07/23 02:02:37;;;;;;;3.90;3.42;;;;;;;18.75;74.60;99842.46;1572728;90;21110;-74
2022/07/23 02:05:06;;;;;;;3.70;3.35;;;;;;;18.73;74.79;99844.11;1606270;87;21548;-74
2022/07/23 02:07:32;;;;;;;3.08;2.87;;;;;;;18.73;74.79;99844.11;1623899;87;21595;-74
2022/07/23 02:09:59;;;;;;;4.50;3.87;;;;;;;18.76;74.79;99850.87;1652541;85;21101;-74
2022/07/23 02:12:26;;;;;;;4.42;3.47;;;;;;;18.75;74.59;99849.27;1675732;85;21030;-74
2022/07/23 02:14:53;;;;;;;4.25;3.85;;;;;;;18.73;74.44;99857.73;1651569;85;21521;-73
2022/07/23 02:17:20;;;;;;;3.90;3.60;;;;;;;18.66;74.56;99857.30;1621459;88;21522;-73
2022/07/23 02:19:47;;;;;;;6.35;4.08;;;;;;;18.57;74.77;99857.73;1664771;85;21086;-73
2022/07/23 02:22:13;;;;;;;3.87;3.58;;;;;;;18.47;75.05;99855.70;1667880;85;21538;-75
2022/07/23 02:24:43;;;;;;;4.17;3.85;;;;;;;18.37;75.44;99851.80;1639440;87;21026;-74
2022/07/23 02:27:10;;;;;;;3.52;3.27;;;;;;;18.27;75.90;99854.14;1659293;85;21044;-74
2022/07/23 02:29:38;;;;;;;4.33;3.90;;;;;;;18.22;76.39;99860.44;1676364;84;21053;-75
2022/07/23 02:32:05;;;;;;;8.58;4.20;;;;;;;18.18;76.79;99858.61;1704641;84;21038;-76
2022/07/23 02:34:32;;;;;;;7.35;4.40;;;;;;;18.18;77.01;99855.34;1703215;84;21040;-75
2022/07/23 02:36:59;;;;;;;4.08;3.77;;;;;;;18.21;77.25;99856.67;1685872;84;22276;-73
2022/07/23 02:39:27;;;;;;;4.42;4.03;;;;;;;18.19;77.26;99861.05;1673201;85;21544;-75
2022/07/23 02:41:54;;;;;;;4.53;4.22;;;;;;;18.16;77.33;99861.64;1698360;84;21194;-77
2022/07/23 02:44:21;;;;;;;4.83;4.42;;;;;;;18.13;77.53;99861.44;1649655;85;21537;-77
2022/07/23 02:46:50;;;;;;;5.03;4.40;;;;;;;18.09;77.72;99855.75;1693372;84;21573;-76
2022/07/23 02:49:17;;;;;;;7.03;5.20;;;;;;;18.04;78.04;99857.73;1665014;84;21544;-74
2022/07/23 02:51:47;;;;;;;6.85;3.85;;;;;;;17.99;78.38;99850.45;1664491;85;21289;-76
2022/07/23 02:54:15;;;;;;;5.92;4.95;;;;;;;17.99;78.95;99853.17;1647684;87;21595;-76
2022/07/23 02:56:44;;;;;;;4.55;4.12;;;;;;;17.98;79.00;99852.94;1674729;85;21655;-78
2022/07/23 02:59:12;;;;;;;5.15;4.45;;;;;;;18.02;79.12;99858.59;1646111;85;20952;-79
2022/07/23 03:01:39;;;;;;;5.15;4.65;;;;;;;18.05;79.10;99858.00;1621339;88;20970;-78
2022/07/23 03:04:09;;;;;;;4.92;4.45;;;;;;;18.06;79.07;99858.27;1656287;85;21251;-77
2022/07/23 03:06:38;;;;;;;4.00;3.70;;;;;;;18.06;79.09;99867.24;1701763;84;20971;-78
2022/07/23 03:09:05;;;;;;;4.55;3.83;;;;;;;18.04;79.37;99866.72;1690144;84;21097;-78
2022/07/23 03:11:32;;;;;;;4.85;4.37;;;;;;;18.03;79.75;99867.84;1702743;84;21042;-78
2022/07/23 03:14:00;;;;;;;6.28;4.20;;;;;;;18.05;79.81;99871.06;1693662;84;21039;-78
2022/07/23 03:16:27;;;;;;;4.10;3.80;;;;;;;18.11;79.83;99875.88;1674791;85;21074;-75
2022/07/23 03:18:55;;;;;;;3.95;3.52;;;;;;;18.14;79.80;99880.18;1693740;84;21825;-79
2022/07/23 03:21:22;;;;;;;5.58;4.50;;;;;;;18.19;79.73;99880.10;1704521;84;20995;-79
2022/07/23 03:23:48;;;;;;;4.62;4.22;;;;;;;18.21;79.67;99880.63;1699739;84;21062;-78
2022/07/23 03:26:15;;;;;;;8.83;4.00;;;;;;;18.25;79.56;99880.30;1675074;85;21027;-79
2022/07/23 03:28:42;;;;;;;3.65;3.35;;;;;;;18.28;79.63;99883.77;1697422;84;21031;-78
2022/07/23 03:31:09;;;;;;;4.12;3.83;;;;;;;18.34;79.63;99878.25;1643485;87;21091;-78
2022/07/23 03:33:37;;;;;;;4.87;4.03;;;;;;;18.42;79.34;99878.93;1628226;85;21260;-78
2022/07/23 03:36:04;;;;;;;4.15;3.85;;;;;;;18.50;79.05;99886.45;1675291;85;21599;-78
2022/07/23 03:38:33;;;;;;;6.17;3.67;;;;;;;18.56;78.82;99880.63;1678105;84;21091;-80
2022/07/23 03:41:01;;;;;;;6.20;4.08;;;;;;;18.63;78.63;99888.43;1678106;84;21552;-79
2022/07/23 03:43:28;;;;;;;4.55;3.22;;;;;;;18.70;78.46;99891.02;1703830;84;21079;-75
2022/07/23 03:45:55;;;;;;;4.60;4.08;;;;;;;18.76;78.27;99885.48;1703825;84;21587;-76
2022/07/23 03:48:22;;;;;;;4.85;3.80;;;;;;;18.83;78.06;99887.28;1677041;84;20963;-76
2022/07/23 03:50:49;;;;;;;4.15;3.75;;;;;;;18.88;77.78;99886.64;1644442;87;21086;-76
2022/07/23 03:53:16;;;;;;;3.33;3.12;;;;;;;18.95;77.61;99888.41;1650965;85;20996;-77
2022/07/23 03:55:43;;;;;;;3.47;3.17;;;;;;;19.05;77.28;99887.41;1672426;85;21051;-76
2022/07/23 03:58:10;;;;;;;3.87;3.47;;;;;;;19.12;76.84;99888.66;1643541;87;21035;-76
2022/07/23 04:00:37;;;;;;;3.27;3.08;;;;;;;19.20;76.52;99883.59;1673012;85;20971;-75
2022/07/23 04:03:04;;;;;;;3.02;2.72;;;;;;;19.26;76.26;99885.93;1651056;85;21058;-75
2022/07/23 04:05:33;;;;;;;3.33;3.02;;;;;;;19.35;76.01;99882.75;1675378;85;21011;-76
2022/07/23 04:08:06;;;;;;;4.53;3.22;;;;;;;19.45;75.50;99888.59;1697155;84;21572;-78
2022/07/23 04:10:35;;;;;;;3.95;2.77;;;;;;;19.55;75.09;99887.02;1674343;85;21584;-77
2022/07/23 04:13:03;;;;;;;3.08;2.83;;;;;;;19.63;74.83;99886.86;1678068;84;21063;-76
2022/07/23 04:15:32;;;;;;;4.80;3.47;;;;;;;19.70;74.47;99888.63;1703972;84;21312;-78
2022/07/23 04:17:59;;;;;;;6.15;3.00;;;;;;;19.77;74.24;99887.64;1702249;84;21110;-79
2022/07/23 04:20:28;;;;;;;3.00;2.80;;;;;;;19.81;74.05;99888.09;1703555;84;21182;-77
2022/07/23 04:22:57;;;;;;;3.30;3.10;;;;;;;19.86;73.56;99885.25;1696773;84;20995;-77
2022/07/23 04:25:24;;;;;;;8.70;3.80;;;;;;;19.95;73.26;99888.09;1672279;85;21084;-77
2022/07/23 04:27:52;;;;;;;3.90;3.58;;;;;;;20.05;73.10;99891.16;1621781;86;21126;-77
2022/07/23 04:30:19;;;;;;;8.83;5.30;;;;;;;20.12;72.69;99889.60;1636388;87;21039;-77
2022/07/23 04:32:46;;;;;;;9.13;3.12;;;;;;;20.21;72.48;99889.11;1592314;87;21756;-78
2022/07/23 04:35:16;;;;;;;5.03;3.20;;;;;;;20.29;72.15;99893.02;1665196;86;21031;-77
2022/07/23 04:37:44;;;;;;;6.10;5.58;;;;;;;20.36;71.92;99892.08;1666533;86;21023;-77
2022/07/23 04:40:13;;;;;;;5.55;3.80;;;;;;;20.42;71.80;99888.12;1666234;86;21013;-77
2022/07/23 04:42:40;;;;;;;4.35;3.60;;;;;;;20.47;71.37;99885.82;1612082;89;21113;-79
2022/07/23 04:45:08;;;;;;;4.12;3.40;;;;;;;20.52;71.20;99889.24;1649460;86;21122;-76
2022/07/23 04:47:35;;;;;;;3.35;2.60;;;;;;;20.54;71.13;99882.89;1616394;87;21942;-76
2022/07/23 04:50:03;;;;;;;3.33;3.02;;;;;;;20.62;70.86;99890.36;1611828;89;20995;-78
2022/07/23 04:52:30;;;;;;;2.98;2.67;;;;;;;20.69;70.44;99888.53;1637849;87;21032;-79
2022/07/23 04:54:57;;;;;;;4.37;2.83;;;;;;;20.77;70.28;99888.59;1661163;86;21089;-76
2022/07/23 04:57:29;;;;;;;6.00;3.15;;;;;;;20.88;69.31;99894.05;1666649;85;21043;-77
2022/07/23 04:59:55;;;;;;;2.98;2.77;;;;;;;20.88;69.31;99894.05;1619568;87;20986;-75
2022/07/23 05:02:22;;;;;;;2.90;2.70;;;;;;;20.94;69.38;99893.36;1659203;86;20936;-77
2022/07/23 05:04:49;;;;;;;2.58;2.37;;;;;;;21.00;69.22;99894.84;1662837;86;21011;-76
2022/07/23 05:07:17;;;;;;;3.25;2.98;;;;;;;21.09;68.86;99897.62;1635783;87;21043;-77
2022/07/23 05:09:46;;;;;;;4.35;3.95;;;;;;;21.13;68.60;99901.34;1632445;87;21360;-77
2022/07/23 05:12:14;;;;;;;4.92;4.30;;;;;;;21.17;68.47;99891.41;1638018;87;20987;-78
2022/07/23 05:14:42;;;;;;;4.50;3.90;;;;;;;21.22;68.11;99898.92;1616567;87;21075;-79
2022/07/23 05:17:12;;;;;;;5.95;5.42;;;;;;;21.27;67.98;99898.78;1638383;86;21019;-78
2022/07/23 05:19:39;;;;;;;4.40;4.05;;;;;;;21.33;67.65;99904.92;1639749;87;21051;-80
2022/07/23 05:22:06;;;;;;;4.72;3.20;;;;;;;21.34;67.46;99901.08;1643975;86;21553;-79
2022/07/23 05:24:35;;;;;;;15.53;11.80;;;;;;;21.38;67.60;99895.77;1642621;86;21008;-82
2022/07/23 05:27:02;;;;;;;7.33;5.87;;;;;;;21.41;67.74;99905.52;1666495;86;21477;-80
2022/07/23 05:29:29;;;;;;;5.35;4.65;;;;;;;21.43;67.94;99898.37;1659972;85;21084;-78
2022/07/23 05:31:56;;;;;;;6.08;4.20;;;;;;;21.47;67.88;99896.05;1663298;84;21052;-78
2022/07/23 05:34:23;;;;;;;3.05;2.85;;;;;;;21.50;67.61;99901.44;1671526;84;21590;-80
2022/07/23 05:36:52;;;;;;;7.37;3.55;;;;;;;21.52;67.48;99901.94;1671492;84;21097;-78
2022/07/23 05:39:20;;;;;;;7.62;3.52;;;;;;;21.57;67.30;99901.80;1690773;84;21049;-78
2022/07/23 05:41:47;;;;;;;6.30;4.25;;;;;;;21.61;67.24;99902.77;1690429;84;21629;-76
2022/07/23 05:44:15;;;;;;;3.05;2.72;;;;;;;21.64;67.13;99900.75;1689509;84;20997;-76
2022/07/23 05:46:43;;;;;;;4.67;3.25;;;;;;;21.68;67.33;99904.47;1666385;84;21104;-76
2022/07/23 05:49:12;;;;;;;5.33;3.20;;;;;;;21.73;67.33;99912.53;1661374;86;20946;-78
2022/07/23 05:51:45;;;;;;;3.25;3.02;;;;;;;21.77;67.07;99909.42;1630377;87;21167;-78
2022/07/23 05:54:12;;;;;;;3.50;2.95;;;;;;;21.82;67.15;99907.10;1673716;84;21121;-76
2022/07/23 05:56:41;;;;;;;5.35;2.75;;;;;;;21.88;66.83;99908.54;1690779;84;21640;-78
2022/07/23 05:59:11;;;;;;;5.50;2.60;;;;;;;21.93;66.20;99902.38;1690495;84;21353;-78
2022/07/23 06:01:38;;;;;;;2.60;2.40;;;;;;;21.99;65.58;99905.78;1664092;84;21033;-76
2022/07/23 06:04:07;;;;;;;3.02;2.70;;;;;;;22.03;65.14;99906.75;1670326;84;21004;-76
2022/07/23 06:06:35;;;;;;;4.42;3.90;;;;;;;22.05;64.97;99908.05;1690275;84;21075;-76
2022/07/23 06:09:03;;;;;;;5.58;3.58;;;;;;;22.10;64.86;99902.42;1689603;84;21604;-75
2022/07/23 06:11:30;;;;;;;11.68;3.30;;;;;;;22.15;64.83;99900.09;1664839;84;21660;-74
2022/07/23 06:13:57;;;;;;;2.45;2.25;;;;;;;22.23;64.78;99901.21;1668884;84;21093;-74
2022/07/23 06:16:26;;;;;;;2.58;2.30;;;;;;;22.29;63.80;99903.48;1662299;84;21093;-74
2022/07/23 06:18:53;;;;;;;2.83;2.62;;;;;;;22.33;63.47;99900.89;1661013;86;21030;-73
2022/07/23 06:21:21;;;;;;;2.40;2.20;;;;;;;22.38;63.19;99901.55;1661183;86;21072;-75
2022/07/23 06:23:48;;;;;;;2.27;2.08;;;;;;;22.43;61.77;99904.13;1683937;84;21221;-75
2022/07/23 06:26:16;;;;;;;4.37;2.25;;;;;;;22.50;61.10;99906.36;1650737;86;20995;-76
2022/07/23 06:28:43;;;;;;;2.17;2.02;;;;;;;22.55;60.45;99900.14;1678606;84;20915;-74
2022/07/23 06:31:10;;;;;;;2.42;2.22;;;;;;;22.61;60.67;99899.42;1673716;85;20968;-78
2022/07/23 06:33:39;;;;;;;2.98;2.08;;;;;;;22.67;60.38;99896.77;1647149;85;21531;-75
2022/07/23 06:36:06;;;;;;;2.80;2.05;;;;;;;22.73;60.31;99901.55;1673865;85;21745;-76
2022/07/23 06:38:33;;;;;;;8.30;4.50;;;;;;;22.80;60.00;99908.13;1648379;85;21070;-74
2022/07/23 06:41:00;;;;;;;2.50;2.20;;;;;;;22.87;59.23;99909.83;1655617;85;21078;-75
2022/07/23 06:43:26;;;;;;;4.05;2.40;;;;;;;22.93;59.02;99907.13;1647109;85;21685;-78
2022/07/23 06:45:58;;;;;;;11.18;4.25;;;;;;;22.99;58.50;99911.88;1675852;85;21587;-77
2022/07/23 06:48:28;;;;;;;4.37;2.75;;;;;;;23.03;58.12;99909.53;1671198;85;21473;-74
2022/07/23 06:50:55;;;;;;;4.87;2.62;;;;;;;23.07;57.82;99912.41;1621962;87;21557;-76
2022/07/23 06:53:26;;;;;;;3.42;2.92;;;;;;;23.12;58.07;99918.33;1623465;85;22161;-76
2022/07/23 06:55:54;;;;;;;3.08;2.47;;;;;;;23.19;57.67;99914.48;1662370;85;21035;-77
2022/07/23 06:58:24;;;;;;;4.30;2.45;;;;;;;23.23;57.84;99914.88;1675630;85;21101;-75
2022/07/23 07:00:53;;;;;;;2.05;1.95;;;;;;;23.28;57.50;99918.81;1660806;85;21353;-74
2022/07/23 07:03:21;;;;;;;2.47;2.17;;;;;;;23.32;57.63;99923.88;1672847;85;21054;-76
2022/07/23 07:05:49;;;;;;;3.40;3.08;;;;;;;23.39;57.33;99920.64;1648729;85;20954;-75
2022/07/23 07:08:17;;;;;;;2.77;2.58;;;;;;;23.41;57.10;99915.05;1676170;85;21071;-75
2022/07/23 07:10:45;;;;;;;2.92;2.62;;;;;;;23.46;57.03;99923.13;1675905;85;21583;-74
2022/07/23 07:13:12;;;;;;;2.67;2.47;;;;;;;23.51;57.17;99914.47;1676141;85;21113;-74
2022/07/23 07:15:40;;;;;;;4.60;2.90;;;;;;;23.55;57.08;99922.31;1676168;85;20986;-73
2022/07/23 07:18:08;;;;;;;3.47;3.10;;;;;;;23.58;56.90;99923.81;1660295;85;21002;-72
2022/07/23 07:20:35;;;;;;;2.75;2.27;;;;;;;23.62;57.07;99920.64;1647184;87;21563;-73
2022/07/23 07:23:02;;;;;;;4.53;2.62;;;;;;;23.67;56.03;99924.58;1663861;85;21014;-72
2022/07/23 07:25:29;;;;;;;3.92;2.60;;;;;;;23.72;56.03;99923.02;1651576;85;21164;-71
2022/07/23 07:27:56;;;;;;;3.10;2.83;;;;;;;23.77;55.78;99928.32;1674940;84;21077;-77
2022/07/23 07:30:23;;;;;;;2.65;2.45;;;;;;;23.79;55.51;99927.41;1672598;85;20988;-76
2022/07/23 07:32:50;;;;;;;3.22;3.00;;;;;;;23.84;54.88;99920.34;1671068;85;21087;-76
2022/07/23 07:35:17;;;;;;;6.47;2.75;;;;;;;23.88;55.00;99922.66;1666803;85;21114;-74
2022/07/23 07:37:44;;;;;;;3.90;2.37;;;;;;;23.93;54.49;99925.81;1644847;87;21162;-74
2022/07/23 07:40:11;;;;;;;4.17;2.30;;;;;;;23.98;53.70;99924.22;1663851;85;20941;-77
2022/07/23 07:42:50;;;;;;;4.03;2.33;;;;;;;24.00;53.46;99920.58;1672142;85;21051;-77
2022/07/23 07:45:17;;;;;;;4.60;2.52;;;;;;;24.05;52.88;99928.62;1643773;86;21054;-75
2022/07/23 07:47:44;;;;;;;4.70;2.83;;;;;;;24.09;53.50;99932.31;1621735;87;21126;-75
2022/07/23 07:50:12;;;;;;;2.83;2.47;;;;;;;24.13;53.72;99920.88;1641191;85;21018;-73
2022/07/23 07:52:41;;;;;;;3.37;2.60;;;;;;;24.17;52.96;99920.48;1673275;85;21162;-73
2022/07/23 07:55:09;;;;;;;6.95;2.58;;;;;;;24.23;52.71;99930.70;1671107;85;21011;-72
2022/07/23 07:57:41;;;;;;;2.42;2.20;;;;;;;24.30;52.34;99921.38;1644537;87;21058;-74
2022/07/23 08:00:10;;;;;;;3.05;2.20;;;;;;;24.36;52.07;99923.36;1662180;85;21085;-76
2022/07/23 08:02:45;;;;;;;2.40;2.00;;;;;;;24.42;52.71;99925.55;1672936;85;21919;-75
2022/07/23 08:05:13;;;;;;;2.60;1.90;;;;;;;24.49;51.80;99913.45;1648827;85;20975;-72
2022/07/23 08:07:42;;;;;;;5.45;2.15;;;;;;;24.52;50.67;99923.77;1616008;88;21083;-76
2022/07/23 08:10:11;;;;;;;2.55;2.22;;;;;;;24.54;50.79;99924.25;1651909;85;21621;-75
2022/07/23 08:12:44;;;;;;;2.52;2.22;;;;;;;24.57;49.66;99927.69;1629450;87;21237;-75
2022/07/23 08:15:15;;;;;;;2.92;2.45;;;;;;;24.58;49.97;99927.92;1643919;87;21910;-76
2022/07/23 08:17:44;;;;;;;11.90;5.03;;;;;;;24.64;50.88;99919.70;1616273;88;21136;-77
2022/07/23 08:20:12;;;;;;;4.90;3.10;;;;;;;24.68;51.11;99919.83;1644673;86;21086;-75
2022/07/23 08:22:58;;;;;;;5.80;3.15;;;;;;;24.75;50.98;99932.45;1645313;86;21233;-75
2022/07/23 08:25:29;;;;;;;2.87;2.52;;;;;;;24.83;50.98;99930.78;1646975;85;21133;-76
2022/07/23 08:27:58;;;;;;;3.65;2.30;;;;;;;24.90;51.38;99930.48;1647439;85;21905;-76
2022/07/23 08:30:27;;;;;;;2.70;2.50;;;;;;;25.00;52.10;99928.67;1662513;84;21102;-75
2022/07/23 08:33:01;;;;;;;8.10;2.40;;;;;;;25.13;51.15;99933.05;1666904;85;21678;-74
2022/07/23 08:35:33;;;;;;;2.67;2.47;;;;;;;25.17;51.19;99940.09;1633705;87;21143;-75
2022/07/23 08:38:03;;;;;;;3.10;2.90;;;;;;;25.16;51.15;99932.96;1652880;86;21082;-76
2022/07/23 08:40:33;;;;;;;4.25;2.47;;;;;;;25.14;50.63;99923.66;1658527;85;21268;-76
2022/07/23 08:43:03;;;;;;;1.85;1.60;;;;;;;25.13;49.93;99924.02;1673957;85;21099;-74
2022/07/23 08:45:30;;;;;;;1.67;1.57;;;;;;;25.14;48.49;99925.61;1691478;84;21019;-74
2022/07/23 08:48:00;;;;;;;1.92;1.82;;;;;;;25.15;48.95;99927.22;1645415;85;21044;-74
2022/07/23 08:50:27;;;;;;;1.65;1.50;;;;;;;25.21;48.88;99931.94;1644696;87;21179;-77
2022/07/23 08:52:57;;;;;;;2.08;1.98;;;;;;;25.23;47.87;99926.30;1643940;87;21262;-75
2022/07/23 08:55:24;;;;;;;4.42;1.92;;;;;;;25.25;46.67;99922.66;1656875;86;21342;-76
2022/07/23 08:57:52;;;;;;;2.83;2.02;;;;;;;25.28;47.23;99910.94;1657446;85;21027;-79
2022/07/23 09:00:22;;;;;;;2.00;1.80;;;;;;;25.35;47.87;99918.66;1638798;85;21532;-76
2022/07/23 09:02:52;;;;;;;7.63;2.53;;;;;;;25.41;48.86;99914.53;1670636;85;21070;-77
2022/07/23 09:05:21;;;;;;;1.90;1.80;;;;;;;25.49;49.20;99918.55;1661352;85;21195;-74
2022/07/23 09:08:15;;;;;;;2.20;2.08;;;;;;;25.55;48.21;99912.28;1669845;84;25728;-74
2022/07/23 09:10:55;;;;;;;4.78;2.22;;;;;;;25.57;48.01;99916.84;1649784;85;21027;-75
2022/07/23 09:13:49;;;;;;;2.22;1.90;;;;;;;25.61;48.25;99913.66;1638245;85;21014;-76
2022/07/23 09:16:21;;;;;;;5.33;2.27;;;;;;;25.61;48.36;99899.89;1668886;85;21075;-80
2022/07/23 09:18:55;;;;;;;4.25;2.27;;;;;;;25.66;48.77;99898.25;1647555;85;21347;-76
2022/07/23 09:21:29;;;;;;;3.33;2.35;;;;;;;25.74;49.43;99894.59;1646415;86;21560;-78
2022/07/23 09:24:10;;;;;;;2.98;2.58;;;;;;;25.86;49.43;99894.56;1646680;86;20998;-76
2022/07/23 09:26:40;;;;;;;9.15;2.17;;;;;;;25.97;48.19;99897.66;1645319;85;21021;-75
2022/07/23 09:29:27;;;;;;;5.53;2.30;;;;;;;26.00;48.07;99904.64;1629785;85;20986;-76
2022/07/23 09:32:05;;;;;;;3.37;2.47;;;;;;;26.06;48.26;99894.19;1643673;87;21192;-75
2022/07/23 09:34:38;;;;;;;2.58;2.00;;;;;;;26.13;48.10;99893.61;1644220;87;20970;-78
2022/07/23 09:37:18;;;;;;;7.35;2.08;;;;;;;26.14;47.77;99892.46;1621088;87;21027;-77
2022/07/23 09:39:47;;;;;;;7.92;2.33;;;;;;;26.21;47.93;99894.87;1621881;87;21055;-79
2022/07/23 09:42:22;;;;;;;3.45;2.52;;;;;;;26.25;47.08;99885.32;1613202;88;21119;-76
2022/07/23 09:44:52;;;;;;;2.37;1.92;;;;;;;26.26;47.14;99888.31;1600374;88;21618;-77
2022/07/23 09:47:21;;;;;;;1.77;1.67;;;;;;;26.30;46.81;99885.08;1647673;85;21043;-76
2022/07/23 09:50:08;;;;;;;1.55;1.30;;;;;;;26.33;45.55;99888.53;1649779;85;21098;-75
2022/07/23 09:52:38;;;;;;;3.37;3.08;;;;;;;26.39;45.70;99894.00;1648919;85;20983;-78
2022/07/23 09:55:07;;;;;;;3.85;2.22;;;;;;;26.46;46.01;99897.79;1644994;87;21624;-77
2022/07/23 09:57:35;;;;;;;3.15;2.80;;;;;;;26.55;45.62;99899.58;1623545;85;21233;-78
2022/07/23 10:00:06;;;;;;;3.77;3.25;;;;;;;26.56;46.00;99895.10;1672887;85;21084;-76
2022/07/23 10:02:34;;;;;;;2.50;2.37;;;;;;;26.56;46.96;99895.10;1636803;87;21531;-77
2022/07/23 10:05:19;;;;;;;3.08;2.75;;;;;;;26.66;47.51;99893.22;1623474;87;21528;-72
2022/07/23 10:07:48;;;;;;;2.75;2.00;;;;;;;26.81;47.05;99884.75;1615284;87;21074;-82
2022/07/23 10:10:21;;;;;;;2.27;2.12;;;;;;;26.82;45.47;99880.81;1583486;87;21183;-83
2022/07/23 10:15:44;;;;;;;3.17;2.12;;;;;;;26.85;46.02;99892.55;1667361;85;21543;-85
2022/07/23 10:18:15;;;;;;;7.83;2.15;;;;;;;26.97;46.03;99891.12;1648174;85;39105;-82
2022/07/23 10:20:44;;;;;;;2.85;2.25;;;;;;;27.08;45.21;99878.41;1655927;86;21107;-84
2022/07/23 10:23:37;;;;;;;2.20;2.00;;;;;;;27.12;45.73;99880.67;1647015;85;21184;-81
2022/07/23 10:26:28;;;;;;;2.10;2.00;;;;;;;27.13;45.50;99881.47;1671798;85;20994;-81
2022/07/23 10:29:25;;;;;;;3.40;2.05;;;;;;;27.15;45.50;99875.00;1671855;85;21094;-79
2022/07/23 10:32:06;;;;;;;1.87;1.77;;;;;;;27.24;44.73;99886.70;1636680;87;21055;-76
2022/07/23 10:34:47;;;;;;;1.95;1.85;;;;;;;27.27;44.33;99877.11;1655664;85;21023;-75
2022/07/23 10:37:34;;;;;;;3.72;2.08;;;;;;;27.27;43.78;99886.78;1668628;85;21224;-72
2022/07/23 10:40:22;;;;;;;1.80;1.70;;;;;;;27.27;43.07;99883.22;1619403;87;21082;-77
2022/07/23 10:42:46;;;;;;;1.60;1.50;;;;;;;27.29;42.93;99877.54;1635822;87;21060;-79
2022/07/23 10:45:36;;;;;;;2.40;2.20;;;;;;;27.34;43.04;99878.66;1619743;87;21144;-78
2022/07/23 10:48:23;;;;;;;3.00;2.80;;;;;;;27.47;43.45;99875.23;1609485;87;21631;-77
2022/07/23 10:51:13;;;;;;;2.33;2.12;;;;;;;27.58;42.66;99874.11;1633006;87;21759;-74
2022/07/23 10:53:55;;;;;;;2.70;2.20;;;;;;;27.64;42.27;99871.30;1617561;88;21129;-74
2022/07/23 10:56:58;;;;;;;2.20;1.90;;;;;;;27.70;42.65;99873.44;1617530;88;21074;-72
2022/07/23 10:59:24;;;;;;;3.12;2.40;;;;;;;27.78;42.10;99867.48;1618103;88;21568;-75
2022/07/23 11:01:52;;;;;;;2.00;1.90;;;;;;;27.81;41.48;99864.59;1617963;88;21084;-71
2022/07/23 11:04:19;;;;;;;4.28;3.90;;;;;;;27.80;42.05;99866.55;1606279;87;21376;-73
2022/07/23 11:06:55;;;;;;;4.72;3.35;;;;;;;27.94;42.18;99861.34;1645659;87;21525;-73
2022/07/23 11:09:43;;;;;;;3.65;3.00;;;;;;;28.01;42.22;99852.41;1646138;87;21015;-74
2022/07/23 11:12:25;;;;;;;2.98;2.75;;;;;;;28.15;42.32;99856.28;1622910;87;21058;-73
2022/07/23 11:15:09;;;;;;;;;;;;;;;28.30;41.62;99849.08;1647975;87;21023;-75
2022/07/23 11:17:47;;;;;;;2.27;2.05;;;;;;;28.35;41.03;99849.36;1645721;87;22184;-74
2022/07/23 11:20:21;;;;;;;2.00;1.90;;;;;;;28.34;40.73;99846.41;1608822;88;21555;-75
2022/07/23 11:22:50;;;;;;;7.55;2.30;;;;;;;28.32;41.12;99852.88;1600385;89;21082;-74
2022/07/23 11:25:34;;;;;;;3.50;1.50;;;;;;;28.34;40.96;99853.32;1597221;88;20956;-74
2022/07/23 11:28:25;;;;;;;2.52;2.33;;;;;;;28.44;40.46;99856.88;1636787;87;21095;-74
2022/07/23 11:30:50;;;;;;;2.20;1.80;;;;;;;28.55;40.23;99849.57;1614914;88;21143;-74
2022/07/23 11:33:19;;;;;;;6.50;2.05;;;;;;;28.56;40.58;99840.11;1643110;87;21029;-74
2022/07/23 11:35:50;;;;;;;1.87;1.72;;;;;;;28.67;40.92;99836.16;1673425;85;20995;-74
2022/07/23 11:38:21;;;;;;;2.12;1.92;;;;;;;28.79;40.57;99834.63;1671317;85;21527;-73
2022/07/23 11:40:51;;;;;;;4.05;2.65;;;;;;;28.88;40.85;99843.48;1673750;85;20959;-74
2022/07/23 11:43:21;;;;;;;3.15;2.85;;;;;;;28.98;39.85;99842.88;1673993;85;21571;-76
2022/07/23 11:45:53;;;;;;;3.12;2.65;;;;;;;28.98;39.85;99842.88;1673653;85;21155;-74
2022/07/23 11:48:23;;;;;;;1.35;1.25;;;;;;;28.99;39.46;99845.87;1673938;85;21105;-73
2022/07/23 11:50:51;;;;;;;5.37;1.70;;;;;;;28.96;38.91;99839.11;1673792;85;21019;-73